Time;durP1;ratioP1;P1;durP2;ratioP2;P2;SDS_P1;SDS_P2;PMS_P1;PMS_P2;Temp;Humidity;BMP_temperature;BMP_pressure;BME280_temperature;BME280_humidity;BME280_pressure;Samples;Min_cycle;Max_cycle;Signal;HPM_P1;HPM_P2
2023/03/11 00:00:12;;;;;;;;;;;9.70;90.50;;;;;;5136773;27;19940;-91
2023/03/11 00:02:38;;;;;;;;;;;9.80;90.60;;;;;;5133290;27;20394;-91
2023/03/11 00:05:04;;;;;;;;;;;9.90;90.10;;;;;;5095594;28;20064;-91
2023/03/11 00:07:30;;;;;;;;;;;9.90;89.80;;;;;;5078966;27;20033;-90
2023/03/11 00:09:55;;;;;;;;;;;9.90;89.20;;;;;;5116048;28;19947;-91
2023/03/11 00:12:21;;;;;;;;;;;9.90;89.90;;;;;;5097389;28;19940;-90
2023/03/11 00:14:46;;;;;;;;;;;10.00;90.30;;;;;;5095626;28;19941;-92
2023/03/11 00:17:12;;;;;;;;;;;10.00;90.10;;;;;;5095363;28;19948;-91
2023/03/11 00:19:37;;;;;;;;;;;9.80;88.70;;;;;;5092737;28;19950;-90
2023/03/11 00:22:03;;;;;;;;;;;9.50;87.70;;;;;;5114787;28;20008;-90
2023/03/11 00:24:28;;;;;;;;;;;9.40;88.80;;;;;;5115820;28;19936;-90
2023/03/11 00:26:54;;;;;;;;;;;9.30;89.80;;;;;;5102994;28;20416;-91
2023/03/11 00:29:19;;;;;;;;;;;9.20;90.60;;;;;;5126896;27;20414;-91
2023/03/11 00:31:45;;;;;;;;;;;9.20;91.40;;;;;;5106492;27;19945;-91
2023/03/11 00:34:10;;;;;;;;;;;9.30;91.70;;;;;;5107839;28;20202;-91
2023/03/11 00:36:36;;;;;;;;;;;9.30;91.80;;;;;;5115544;28;20046;-91
2023/03/11 00:39:05;;;;;;;;;;;9.40;91.40;;;;;;5128035;27;19940;-91
2023/03/11 00:41:31;;;;;;;;;;;9.30;91.10;;;;;;5127630;27;19960;-91
2023/03/11 00:43:57;;;;;;;;;;;9.30;91.60;;;;;;5112720;28;19952;-91
2023/03/11 00:46:22;;;;;;;;;;;9.30;91.90;;;;;;5115566;28;20034;-91
2023/03/11 00:48:51;;;;;;;;;;;9.40;92.00;;;;;;5125991;27;20436;-90
2023/03/11 00:51:17;;;;;;;;;;;9.40;92.00;;;;;;5135844;27;19942;-91
2023/03/11 00:53:43;;;;;;;;;;;9.20;91.80;;;;;;5135758;27;20496;-90
2023/03/11 00:56:09;;;;;;;;;;;9.10;92.20;;;;;;5132289;27;20024;-91
2023/03/11 00:58:34;;;;;;;;;;;9.20;92.60;;;;;;5096808;28;19953;-90
2023/03/11 01:01:10;;;;;;;;;;;9.20;93.10;;;;;;5114002;28;19944;-91
2023/03/11 01:03:37;;;;;;;;;;;9.20;93.20;;;;;;5094284;28;20468;-90
2023/03/11 01:06:02;;;;;;;;;;;9.30;93.10;;;;;;5096815;27;20044;-90
2023/03/11 01:08:29;;;;;;;;;;;9.40;93.10;;;;;;5135766;27;20405;-91
2023/03/11 01:10:54;;;;;;;;;;;9.40;93.10;;;;;;5135447;27;19939;-90
2023/03/11 01:13:20;;;;;;;;;;;9.40;93.00;;;;;;5098132;27;20315;-91
2023/03/11 01:15:46;;;;;;;;;;;9.40;92.80;;;;;;5094377;28;19941;-91
2023/03/11 01:18:12;;;;;;;;;;;9.30;92.60;;;;;;5132444;27;20177;-90
2023/03/11 01:20:38;;;;;;;;;;;9.30;92.60;;;;;;5103962;27;19952;-90
2023/03/11 01:23:04;;;;;;;;;;;9.20;92.70;;;;;;5094160;28;19958;-90
2023/03/11 01:25:29;;;;;;;;;;;9.20;92.80;;;;;;5094216;28;19944;-91
2023/03/11 01:27:55;;;;;;;;;;;9.10;92.70;;;;;;5115868;27;20425;-91
2023/03/11 01:30:22;;;;;;;;;;;9.10;92.90;;;;;;5114490;28;19938;-90
2023/03/11 01:32:48;;;;;;;;;;;9.10;92.90;;;;;;5114315;28;19945;-90
2023/03/11 01:35:15;;;;;;;;;;;9.10;93.00;;;;;;5114407;28;19937;-90
2023/03/11 01:37:40;;;;;;;;;;;9.20;93.10;;;;;;5114661;27;19989;-90
2023/03/11 01:40:08;;;;;;;;;;;9.30;93.10;;;;;;5114270;28;19943;-91
2023/03/11 01:42:33;;;;;;;;;;;9.40;93.30;;;;;;5102746;28;20420;-91
2023/03/11 01:44:59;;;;;;;;;;;9.40;93.20;;;;;;5093746;28;19990;-91
2023/03/11 01:47:32;;;;;;;;;;;9.40;92.90;;;;;;5121885;27;19947;-90
2023/03/11 01:49:58;;;;;;;;;;;9.20;91.80;;;;;;5127907;27;19958;-90
2023/03/11 01:52:24;;;;;;;;;;;8.90;91.30;;;;;;5093695;28;19953;-90
2023/03/11 01:54:49;;;;;;;;;;;8.80;92.10;;;;;;5093715;28;19980;-90
2023/03/11 01:57:15;;;;;;;;;;;8.80;92.50;;;;;;5101398;27;19944;-90
2023/03/11 01:59:44;;;;;;;;;;;8.90;92.70;;;;;;5093607;28;19990;-90
2023/03/11 02:02:12;;;;;;;;;;;8.90;92.50;;;;;;5093318;28;20414;-90
2023/03/11 02:04:39;;;;;;;;;;;8.90;92.40;;;;;;5093420;28;20013;-91
2023/03/11 02:07:06;;;;;;;;;;;8.90;92.30;;;;;;5114900;27;19944;-90
2023/03/11 02:09:31;;;;;;;;;;;8.90;92.30;;;;;;5134328;27;19939;-91
2023/03/11 02:11:57;;;;;;;;;;;8.90;92.20;;;;;;5112919;27;19948;-90
2023/03/11 02:14:23;;;;;;;;;;;8.80;91.80;;;;;;5113786;28;20284;-90
2023/03/11 02:16:49;;;;;;;;;;;8.80;92.10;;;;;;5113861;28;20418;-90
2023/03/11 02:19:33;;;;;;;;;;;8.90;92.20;;;;;;5113735;28;19942;-91
2023/03/11 02:21:59;;;;;;;;;;;8.90;92.10;;;;;;5114681;28;19958;-91
2023/03/11 02:24:29;;;;;;;;;;;8.70;91.50;;;;;;5113591;28;20017;-92
2023/03/11 02:26:55;;;;;;;;;;;8.40;89.70;;;;;;5116334;27;19961;-91
2023/03/11 02:29:21;;;;;;;;;;;8.10;89.50;;;;;;5134132;27;20331;-91
2023/03/11 02:31:47;;;;;;;;;;;8.00;90.00;;;;;;5118127;28;20391;-90
2023/03/11 02:34:32;;;;;;;;;;;8.00;89.70;;;;;;5113823;28;19946;-90
2023/03/11 02:36:58;;;;;;;;;;;8.00;91.60;;;;;;5112741;28;20032;-90
2023/03/11 02:39:31;;;;;;;;;;;8.30;92.60;;;;;;5111631;28;20499;-90
2023/03/11 02:41:57;;;;;;;;;;;8.40;92.80;;;;;;5111736;28;19962;-91
2023/03/11 02:44:23;;;;;;;;;;;8.30;91.60;;;;;;5115240;28;20047;-90
2023/03/11 02:46:48;;;;;;;;;;;8.30;91.70;;;;;;5124836;27;20381;-90
2023/03/11 02:49:14;;;;;;;;;;;8.30;91.40;;;;;;5124773;27;20451;-91
2023/03/11 02:51:39;;;;;;;;;;;8.20;91.30;;;;;;5117588;28;19964;-90
2023/03/11 02:54:05;;;;;;;;;;;7.90;90.20;;;;;;5117352;28;20270;-90
2023/03/11 02:56:31;;;;;;;;;;;7.80;90.60;;;;;;5119675;27;19938;-91
2023/03/11 02:58:57;;;;;;;;;;;7.80;91.30;;;;;;5138053;27;19944;-90
2023/03/11 03:01:22;;;;;;;;;;;7.80;91.90;;;;;;5137798;27;19936;-90
2023/03/11 03:03:48;;;;;;;;;;;7.90;92.40;;;;;;5111072;28;19947;-90
2023/03/11 03:06:13;;;;;;;;;;;7.80;92.50;;;;;;5118884;27;19940;-90
2023/03/11 03:08:39;;;;;;;;;;;7.70;92.60;;;;;;5122662;27;20320;-90
2023/03/11 03:11:04;;;;;;;;;;;7.70;92.80;;;;;;5114921;28;19996;-91
2023/03/11 03:13:31;;;;;;;;;;;7.80;92.90;;;;;;5086532;27;20052;-91
2023/03/11 03:15:57;;;;;;;;;;;7.90;92.70;;;;;;5137685;27;20396;-90
2023/03/11 03:18:22;;;;;;;;;;;7.90;92.20;;;;;;5137970;27;19946;-91
2023/03/11 03:20:49;;;;;;;;;;;7.90;91.40;;;;;;5137466;27;19947;-90
2023/03/11 03:23:14;;;;;;;;;;;7.90;91.70;;;;;;5122346;27;20306;-90
2023/03/11 03:25:43;;;;;;;;;;;8.00;92.20;;;;;;5137532;27;19942;-90
2023/03/11 03:28:10;;;;;;;;;;;8.10;92.50;;;;;;5118281;27;19950;-91
2023/03/11 03:30:36;;;;;;;;;;;8.10;92.60;;;;;;5116821;28;20488;-91
2023/03/11 03:33:01;;;;;;;;;;;8.10;92.60;;;;;;5116782;28;19971;-90
2023/03/11 03:35:27;;;;;;;;;;;7.90;91.60;;;;;;5128555;27;19993;-90
2023/03/11 03:37:53;;;;;;;;;;;7.40;88.80;;;;;;5114981;28;19940;-91
2023/03/11 03:40:19;;;;;;;;;;;7.20;89.90;;;;;;5116657;28;19943;-91
2023/03/11 03:42:45;;;;;;;;;;;7.10;90.90;;;;;;5115595;28;19949;-91
2023/03/11 03:45:10;;;;;;;;;;;7.20;91.60;;;;;;5115825;27;20045;-90
2023/03/11 03:47:36;;;;;;;;;;;7.30;91.90;;;;;;5098268;28;19946;-91
2023/03/11 03:50:03;;;;;;;;;;;7.30;92.10;;;;;;5103647;28;19950;-92
2023/03/11 03:52:28;;;;;;;;;;;7.50;92.50;;;;;;5095830;28;20392;-90
2023/03/11 03:54:54;;;;;;;;;;;7.60;92.80;;;;;;5124182;27;19945;-91
2023/03/11 03:57:19;;;;;;;;;;;7.70;92.40;;;;;;5129202;27;19950;-90
2023/03/11 03:59:45;;;;;;;;;;;7.30;90.90;;;;;;5116516;28;19937;-90
2023/03/11 04:02:10;;;;;;;;;;;7.10;90.90;;;;;;5116038;28;19938;-91
2023/03/11 04:04:36;;;;;;;;;;;7.10;91.60;;;;;;5084135;28;20438;-91
2023/03/11 04:07:05;;;;;;;;;;;7.30;92.70;;;;;;5095762;28;20041;-91
2023/03/11 04:09:31;;;;;;;;;;;7.50;92.90;;;;;;5095697;28;20021;-91
2023/03/11 04:11:58;;;;;;;;;;;7.60;92.40;;;;;;5094806;28;19941;-91
2023/03/11 04:14:24;;;;;;;;;;;7.60;91.80;;;;;;5105392;28;19998;-91
2023/03/11 04:16:50;;;;;;;;;;;7.70;91.60;;;;;;5115979;28;19934;-90
2023/03/11 04:19:15;;;;;;;;;;;7.80;92.20;;;;;;5115918;28;19957;-90
2023/03/11 04:21:41;;;;;;;;;;;7.80;91.70;;;;;;5106116;28;19947;-91
2023/03/11 04:24:07;;;;;;;;;;;7.70;90.70;;;;;;5095817;28;19941;-90
2023/03/11 04:26:33;;;;;;;;;;;7.20;88.90;;;;;;5095424;28;20468;-90
2023/03/11 04:28:58;;;;;;;;;;;7.00;89.30;;;;;;5090783;28;19972;-91
2023/03/11 04:31:24;;;;;;;;;;;7.00;90.40;;;;;;5095302;28;20228;-90
2023/03/11 04:33:49;;;;;;;;;;;7.00;91.90;;;;;;5099780;28;19954;-91
2023/03/11 04:36:15;;;;;;;;;;;7.20;92.60;;;;;;5109753;28;19949;-92
2023/03/11 04:38:40;;;;;;;;;;;7.20;92.40;;;;;;5075194;28;19948;-91
2023/03/11 04:41:06;;;;;;;;;;;7.20;92.20;;;;;;5084471;28;20152;-90
2023/03/11 04:43:32;;;;;;;;;;;7.20;91.70;;;;;;5100075;28;19947;-91
2023/03/11 04:45:58;;;;;;;;;;;7.30;91.20;;;;;;5115357;28;19937;-91
2023/03/11 04:48:25;;;;;;;;;;;7.40;91.30;;;;;;5115372;28;20416;-91
2023/03/11 04:50:51;;;;;;;;;;;7.40;90.90;;;;;;5115257;28;20068;-91
2023/03/11 04:53:17;;;;;;;;;;;7.50;91.20;;;;;;5106499;28;20357;-91
2023/03/11 04:55:42;;;;;;;;;;;7.60;91.20;;;;;;5093710;28;19948;-91
2023/03/11 04:58:08;;;;;;;;;;;7.60;91.10;;;;;;5092989;28;19957;-91
2023/03/11 05:00:33;;;;;;;;;;;7.60;90.40;;;;;;5094652;28;19942;-91
2023/03/11 05:02:59;;;;;;;;;;;7.60;90.50;;;;;;5100644;27;20399;-90
2023/03/11 05:05:24;;;;;;;;;;;7.60;90.30;;;;;;5129037;27;19947;-90
2023/03/11 05:07:50;;;;;;;;;;;7.50;90.80;;;;;;5113085;28;19944;-92
2023/03/11 05:10:21;;;;;;;;;;;7.60;91.50;;;;;;5096555;28;20306;-90
2023/03/11 05:12:47;;;;;;;;;;;7.60;91.60;;;;;;5116215;27;19948;-91
2023/03/11 05:15:12;;;;;;;;;;;7.60;91.50;;;;;;5135378;27;19943;-90
2023/03/11 05:17:38;;;;;;;;;;;7.60;90.60;;;;;;5116848;27;19945;-90
2023/03/11 05:20:06;;;;;;;;;;;7.40;90.00;;;;;;5135270;27;19937;-90
2023/03/11 05:22:32;;;;;;;;;;;7.30;90.40;;;;;;5095370;28;20406;-90
2023/03/11 05:24:57;;;;;;;;;;;7.40;91.70;;;;;;5114616;28;19941;-90
2023/03/11 05:27:23;;;;;;;;;;;7.40;91.50;;;;;;5113578;28;20375;-90
2023/03/11 05:29:48;;;;;;;;;;;7.60;92.20;;;;;;5114307;28;19944;-91
2023/03/11 05:32:14;;;;;;;;;;;7.70;92.80;;;;;;5114456;28;20452;-90
2023/03/11 05:34:40;;;;;;;;;;;7.80;92.20;;;;;;5125041;27;19980;-91
2023/03/11 05:37:05;;;;;;;;;;;7.80;92.20;;;;;;5111195;28;20039;-91
2023/03/11 05:39:31;;;;;;;;;;;7.90;92.30;;;;;;5114341;28;19939;-90
2023/03/11 05:41:56;;;;;;;;;;;7.80;91.30;;;;;;5113363;28;19970;-91
2023/03/11 05:44:22;;;;;;;;;;;7.80;90.60;;;;;;5098988;28;19945;-91
2023/03/11 05:46:47;;;;;;;;;;;7.70;90.10;;;;;;5094070;28;19996;-90
2023/03/11 05:49:13;;;;;;;;;;;7.60;90.10;;;;;;5094457;28;20419;-90
2023/03/11 05:51:39;;;;;;;;;;;7.50;90.10;;;;;;5110828;28;20595;-89
2023/03/11 05:54:10;;;;;;;;;;;7.40;89.50;;;;;;5112472;27;19966;-90
2023/03/11 05:56:36;;;;;;;;;;;7.20;89.90;;;;;;5112927;28;19948;-89
2023/03/11 05:59:01;;;;;;;;;;;7.20;90.60;;;;;;5110099;28;19937;-89
2023/03/11 06:01:27;;;;;;;;;;;7.20;91.40;;;;;;5114162;27;19970;-89
2023/03/11 06:03:52;;;;;;;;;;;7.20;92.50;;;;;;5113555;27;20014;-90
2023/03/11 06:06:19;;;;;;;;;;;7.20;93.60;;;;;;5112514;28;20079;-90
2023/03/11 06:08:49;;;;;;;;;;;7.30;94.00;;;;;;5113875;28;19940;-89
2023/03/11 06:11:14;;;;;;;;;;;7.40;93.60;;;;;;5113992;28;19947;-89
2023/03/11 06:13:40;;;;;;;;;;;7.70;93.50;;;;;;5112606;28;19946;-90
2023/03/11 06:16:06;;;;;;;;;;;7.70;92.80;;;;;;5112623;28;19943;-90
2023/03/11 06:18:32;;;;;;;;;;;7.70;92.70;;;;;;5110555;28;19971;-89
2023/03/11 06:20:58;;;;;;;;;;;7.70;93.00;;;;;;5097503;28;20386;-89
2023/03/11 06:23:24;;;;;;;;;;;7.70;92.90;;;;;;5111061;28;19956;-89
2023/03/11 06:26:00;;;;;;;;;;;7.60;93.90;;;;;;5114997;28;20028;-89
2023/03/11 06:28:26;;;;;;;;;;;7.70;94.00;;;;;;5116307;28;19941;-89
2023/03/11 06:30:52;;;;;;;;;;;7.60;93.70;;;;;;5095051;28;19979;-89
2023/03/11 06:33:17;;;;;;;;;;;7.80;94.00;;;;;;5113601;28;20405;-89
2023/03/11 06:35:43;;;;;;;;;;;7.80;94.00;;;;;;5113123;28;20410;-90
2023/03/11 06:38:08;;;;;;;;;;;7.90;94.30;;;;;;5112505;28;20232;-90
2023/03/11 06:40:35;;;;;;;;;;;8.00;94.50;;;;;;5120577;28;20401;-89
2023/03/11 06:43:01;;;;;;;;;;;8.10;94.30;;;;;;5123231;28;19979;-89
2023/03/11 06:45:27;;;;;;;;;;;8.10;93.90;;;;;;5113500;28;19946;-89
2023/03/11 06:47:52;;;;;;;;;;;8.20;93.70;;;;;;5113446;28;19944;-89
2023/03/11 06:50:18;;;;;;;;;;;8.30;93.70;;;;;;5119995;28;19934;-89
2023/03/11 06:52:43;;;;;;;;;;;8.40;93.90;;;;;;5111656;28;20371;-90
2023/03/11 06:55:09;;;;;;;;;;;8.40;94.00;;;;;;5113225;28;19966;-89
2023/03/11 06:57:34;;;;;;;;;;;8.80;93.50;;;;;;5113380;28;20339;-90
2023/03/11 07:00:00;;;;;;;;;;;8.90;92.70;;;;;;5095293;28;19943;-89
2023/03/11 07:02:25;;;;;;;;;;;9.10;92.00;;;;;;5110868;28;19956;-89
2023/03/11 07:04:51;;;;;;;;;;;9.20;91.30;;;;;;5105726;22;20360;-89
2023/03/11 07:07:17;;;;;;;;;;;9.30;90.90;;;;;;5099927;28;20048;-89
2023/03/11 07:09:42;;;;;;;;;;;9.30;90.40;;;;;;5107282;28;20428;-89
2023/03/11 07:12:08;;;;;;;;;;;9.40;90.20;;;;;;5106948;28;20003;-89
2023/03/11 07:14:34;;;;;;;;;;;9.50;90.40;;;;;;5110844;28;19993;-89
2023/03/11 07:17:00;;;;;;;;;;;9.50;90.40;;;;;;5131703;28;19943;-89
2023/03/11 07:19:25;;;;;;;;;;;9.70;90.30;;;;;;5130832;28;19949;-89
2023/03/11 07:21:51;;;;;;;;;;;9.90;89.80;;;;;;5115380;28;20001;-90
2023/03/11 07:24:16;;;;;;;;;;;9.90;89.70;;;;;;5121451;28;19962;-89
2023/03/11 07:26:42;;;;;;;;;;;10.10;89.50;;;;;;5121349;28;20011;-89
2023/03/11 07:29:08;;;;;;;;;;;10.20;89.40;;;;;;5124750;28;19994;-89
2023/03/11 07:31:35;;;;;;;;;;;10.30;89.50;;;;;;5135903;27;20050;-89
2023/03/11 07:34:02;;;;;;;;;;;10.40;89.40;;;;;;5113259;28;19955;-90
2023/03/11 07:36:28;;;;;;;;;;;10.60;89.20;;;;;;5128418;27;19952;-90
2023/03/11 07:38:57;;;;;;;;;;;10.70;89.00;;;;;;5133869;27;19987;-90
2023/03/11 07:41:23;;;;;;;;;;;10.80;89.20;;;;;;5127101;27;20004;-90
2023/03/11 07:43:48;;;;;;;;;;;11.00;88.30;;;;;;5126105;27;20343;-90
2023/03/11 07:46:17;;;;;;;;;;;11.20;88.20;;;;;;5137134;27;19940;-90
2023/03/11 07:48:43;;;;;;;;;;;11.60;87.70;;;;;;5135843;27;19990;-90
2023/03/11 07:51:10;;;;;;;;;;;11.90;86.40;;;;;;5123515;27;19944;-90
2023/03/11 07:53:35;;;;;;;;;;;11.90;86.10;;;;;;5116272;27;19975;-90
2023/03/11 07:56:02;;;;;;;;;;;12.10;86.40;;;;;;5117652;27;20453;-90
2023/03/11 07:58:27;;;;;;;;;;;12.30;86.10;;;;;;5135163;27;19943;-90
2023/03/11 08:00:55;;;;;;;;;;;12.40;85.00;;;;;;5136789;27;19959;-90
2023/03/11 08:03:24;;;;;;;;;;;12.40;84.70;;;;;;5136489;27;19972;-90
2023/03/11 08:05:50;;;;;;;;;;;12.40;85.00;;;;;;5136669;27;20398;-90
2023/03/11 08:08:16;;;;;;;;;;;12.40;85.10;;;;;;5116893;27;20070;-90
2023/03/11 08:10:41;;;;;;;;;;;12.40;85.10;;;;;;5132727;27;20066;-90
2023/03/11 08:13:07;;;;;;;;;;;12.50;85.40;;;;;;5097939;27;19947;-91
2023/03/11 08:15:32;;;;;;;;;;;12.60;85.80;;;;;;5116009;28;19941;-90
2023/03/11 08:17:58;;;;;;;;;;;12.80;85.50;;;;;;5116017;28;19939;-90
2023/03/11 08:20:23;;;;;;;;;;;13.00;84.90;;;;;;5127550;27;20028;-90
2023/03/11 08:22:49;;;;;;;;;;;13.30;84.00;;;;;;5135164;27;19967;-90
2023/03/11 08:25:14;;;;;;;;;;;13.30;83.10;;;;;;5136062;27;20416;-90
2023/03/11 08:27:40;;;;;;;;;;;13.50;82.50;;;;;;5136287;27;19940;-90
2023/03/11 08:30:07;;;;;;;;;;;13.60;82.20;;;;;;5133199;27;19942;-90
2023/03/11 08:32:32;;;;;;;;;;;13.70;82.20;;;;;;5129712;27;19942;-90
2023/03/11 08:34:58;;;;;;;;;;;13.90;81.10;;;;;;5131440;27;20026;-89
2023/03/11 08:37:23;;;;;;;;;;;13.80;80.40;;;;;;5134394;27;19951;-89
2023/03/11 08:39:49;;;;;;;;;;;13.40;81.50;;;;;;5131346;27;20421;-90
2023/03/11 08:42:15;;;;;;;;;;;13.20;82.30;;;;;;5132870;27;19957;-89
2023/03/11 08:44:41;;;;;;;;;;;13.00;82.90;;;;;;5134445;27;19945;-89
2023/03/11 08:47:06;;;;;;;;;;;13.00;83.20;;;;;;5134386;27;20436;-89
2023/03/11 08:49:32;;;;;;;;;;;12.90;83.50;;;;;;5134460;27;19943;-89
2023/03/11 08:51:57;;;;;;;;;;;13.10;83.50;;;;;;5135152;27;19941;-90
2023/03/11 08:54:23;;;;;;;;;;;13.20;83.00;;;;;;5135342;27;22143;-90
2023/03/11 08:56:48;;;;;;;;;;;13.30;82.70;;;;;;5128166;27;19946;-90
2023/03/11 08:59:14;;;;;;;;;;;13.50;82.40;;;;;;5111781;27;19955;-90
2023/03/11 09:01:41;;;;;;;;;;;13.60;82.10;;;;;;5131770;27;19956;-90
2023/03/11 09:04:07;;;;;;;;;;;13.70;82.20;;;;;;5133393;27;19977;-90
2023/03/11 09:06:32;;;;;;;;;;;14.00;80.70;;;;;;5135162;27;19936;-90
2023/03/11 09:08:58;;;;;;;;;;;14.20;79.80;;;;;;5135159;27;19945;-89
2023/03/11 09:11:24;;;;;;;;;;;14.20;80.20;;;;;;5132948;27;19980;-90
2023/03/11 09:13:49;;;;;;;;;;;14.20;80.10;;;;;;5134725;27;20315;-89
2023/03/11 09:16:23;;;;;;;;;;;14.20;80.00;;;;;;5131651;27;20041;-90
2023/03/11 09:18:48;;;;;;;;;;;14.30;79.30;;;;;;5130208;27;19949;-89
2023/03/11 09:21:14;;;;;;;;;;;14.30;79.10;;;;;;5132004;27;20324;-90
2023/03/11 09:23:40;;;;;;;;;;;14.30;78.10;;;;;;5133089;27;19960;-90
2023/03/11 09:26:05;;;;;;;;;;;14.40;77.70;;;;;;5132355;27;20008;-90
2023/03/11 09:28:31;;;;;;;;;;;14.40;77.70;;;;;;5134674;27;19947;-90
2023/03/11 09:30:56;;;;;;;;;;;14.40;79.10;;;;;;5115796;27;19952;-90
2023/03/11 09:33:22;;;;;;;;;;;14.60;78.90;;;;;;5134156;27;19950;-91
2023/03/11 09:35:47;;;;;;;;;;;14.70;77.10;;;;;;5132623;27;19953;-90
2023/03/11 09:38:13;;;;;;;;;;;14.80;76.50;;;;;;5133860;27;19953;-90
2023/03/11 09:40:41;;;;;;;;;;;14.90;78.00;;;;;;5133743;27;19945;-90
2023/03/11 09:43:30;;;;;;;;;;;14.90;77.80;;;;;;5133394;27;20332;-90
2023/03/11 09:46:03;;;;;;;;;;;14.90;77.50;;;;;;5127630;27;19992;-91
2023/03/11 09:48:28;;;;;;;;;;;15.00;77.20;;;;;;5129159;27;19941;-91
2023/03/11 09:50:59;;;;;;;;;;;15.10;77.50;;;;;;5132010;27;20283;-91
2023/03/11 09:53:37;;;;;;;;;;;15.30;77.40;;;;;;5111131;27;19964;-90
2023/03/11 09:56:05;;;;;;;;;;;15.40;76.00;;;;;;5133468;27;19948;-90
2023/03/11 09:58:33;;;;;;;;;;;15.50;76.20;;;;;;5133107;27;20412;-90
2023/03/11 10:00:59;;;;;;;;;;;15.50;75.40;;;;;;5133394;27;19948;-90
2023/03/11 10:03:27;;;;;;;;;;;15.50;75.40;;;;;;5133976;27;19982;-89
2023/03/11 10:05:57;;;;;;;;;;;15.60;75.80;;;;;;5130449;27;19950;-90
2023/03/11 10:08:37;;;;;;;;;;;15.70;74.40;;;;;;5133660;27;20044;-90
2023/03/11 10:11:15;;;;;;;;;;;15.80;75.10;;;;;;5133806;27;19947;-90
2023/03/11 10:13:59;;;;;;;;;;;15.90;73.90;;;;;;5133709;27;19940;-90
2023/03/11 10:16:33;;;;;;;;;;;16.10;72.90;;;;;;5132946;27;21672;-90
2023/03/11 10:19:14;;;;;;;;;;;16.40;72.70;;;;;;5133610;27;19948;-90
2023/03/11 10:21:46;;;;;;;;;;;16.60;71.60;;;;;;5133210;27;19962;-91
2023/03/11 10:24:16;;;;;;;;;;;16.80;71.50;;;;;;5134240;27;20026;-91
2023/03/11 10:26:47;;;;;;;;;;;17.10;70.20;;;;;;5132670;27;19942;-90
2023/03/11 10:29:17;;;;;;;;;;;17.30;68.30;;;;;;5130140;27;19942;-91
2023/03/11 10:31:46;;;;;;;;;;;17.40;67.30;;;;;;5114156;27;19999;-91
2023/03/11 10:34:18;;;;;;;;;;;17.40;66.60;;;;;;5132281;28;19936;-91
2023/03/11 10:36:50;;;;;;;;;;;17.50;65.80;;;;;;5134131;28;19942;-91
2023/03/11 10:39:15;;;;;;;;;;;17.60;66.70;;;;;;5134332;28;19945;-90
2023/03/11 10:42:01;;;;;;;;;;;17.80;66.60;;;;;;5133144;28;20022;-91
2023/03/11 10:44:30;;;;;;;;;;;18.00;66.30;;;;;;5132698;28;19945;-90
2023/03/11 10:46:56;;;;;;;;;;;18.20;64.40;;;;;;5127849;28;20052;-90
2023/03/11 10:49:22;;;;;;;;;;;18.30;66.10;;;;;;5133700;28;19992;-90
2023/03/11 10:51:49;;;;;;;;;;;18.20;64.00;;;;;;5133901;28;20038;-90
2023/03/11 10:54:32;;;;;;;;;;;18.10;65.60;;;;;;5133661;28;19939;-89
2023/03/11 10:57:02;;;;;;;;;;;18.20;65.50;;;;;;5133100;28;19947;-90
2023/03/11 10:59:27;;;;;;;;;;;18.20;64.70;;;;;;5133605;28;19957;-91
2023/03/11 11:02:13;;;;;;;;;;;18.40;64.00;;;;;;5133442;28;19963;-91
2023/03/11 11:04:40;;;;;;;;;;;18.60;62.20;;;;;;5132697;27;20029;-90
2023/03/11 11:07:26;;;;;;;;;;;18.80;62.10;;;;;;5137799;27;20003;-91
2023/03/11 11:10:10;;;;;;;;;;;19.00;61.90;;;;;;5137604;27;20048;-90
2023/03/11 11:12:52;;;;;;;;;;;19.10;60.00;;;;;;5137754;27;19947;-91
2023/03/11 11:15:29;;;;;;;;;;;19.20;59.50;;;;;;5119056;27;20433;-91
2023/03/11 11:17:59;;;;;;;;;;;19.20;57.30;;;;;;5131401;27;20440;-90
2023/03/11 11:20:25;;;;;;;;;;;19.30;56.90;;;;;;5129210;27;19938;-91
2023/03/11 11:22:53;;;;;;;;;;;19.60;56.60;;;;;;5130786;27;19963;-91
2023/03/11 11:25:26;;;;;;;;;;;19.60;55.70;;;;;;5120696;27;19945;-91
2023/03/11 11:27:56;;;;;;;;;;;19.30;56.70;;;;;;5117041;28;19994;-91
2023/03/11 11:30:22;;;;;;;;;;;19.40;57.50;;;;;;5116758;28;20040;-91
2023/03/11 11:32:47;;;;;;;;;;;19.30;57.10;;;;;;5116710;28;20376;-91
2023/03/11 11:35:14;;;;;;;;;;;19.30;57.90;;;;;;5135265;27;20401;-91
2023/03/11 11:37:45;;;;;;;;;;;19.20;56.90;;;;;;5137322;27;19942;-90
2023/03/11 11:40:11;;;;;;;;;;;19.10;56.70;;;;;;5118800;27;20410;-91
2023/03/11 11:42:38;;;;;;;;;;;18.80;57.20;;;;;;5137171;27;20003;-90
2023/03/11 11:45:18;;;;;;;;;;;18.80;57.70;;;;;;5137165;27;19984;-91
2023/03/11 11:47:47;;;;;;;;;;;18.80;58.80;;;;;;5137187;27;19932;-91
2023/03/11 11:50:22;;;;;;;;;;;18.90;58.00;;;;;;5137135;27;19947;-91
2023/03/11 11:53:08;;;;;;;;;;;19.00;59.60;;;;;;5137634;27;19977;-91
2023/03/11 11:55:34;;;;;;;;;;;19.30;58.90;;;;;;5136354;27;19944;-91
2023/03/11 11:57:59;;;;;;;;;;;19.40;56.30;;;;;;5136982;27;19939;-91
2023/03/11 12:00:45;;;;;;;;;;;19.70;56.20;;;;;;5118246;27;19940;-91
2023/03/11 12:03:24;;;;;;;;;;;19.90;55.00;;;;;;5084135;27;20056;-91
2023/03/11 12:05:54;;;;;;;;;;;20.10;53.70;;;;;;5136858;27;19944;-91
2023/03/11 12:08:20;;;;;;;;;;;20.40;54.40;;;;;;5136778;27;19940;-91
2023/03/11 12:10:49;;;;;;;;;;;20.80;52.80;;;;;;5136998;27;19947;-91
2023/03/11 12:13:20;;;;;;;;;;;20.90;52.10;;;;;;5136989;27;19943;-90
2023/03/11 12:15:46;;;;;;;;;;;20.90;51.80;;;;;;5136298;27;19989;-90
2023/03/11 12:18:16;;;;;;;;;;;20.80;52.60;;;;;;5135670;27;20331;-90
2023/03/11 12:20:46;;;;;;;;;;;20.80;53.10;;;;;;5136802;27;19986;-90
2023/03/11 12:23:21;;;;;;;;;;;20.90;53.80;;;;;;5136421;27;19960;-91
2023/03/11 12:25:56;;;;;;;;;;;21.20;52.70;;;;;;5136389;27;19991;-91
2023/03/11 12:28:30;;;;;;;;;;;21.60;50.10;;;;;;5136354;27;19937;-90
2023/03/11 12:30:59;;;;;;;;;;;22.30;49.30;;;;;;5136014;27;20294;-91
2023/03/11 12:33:42;;;;;;;;;;;22.90;47.00;;;;;;5136575;27;19948;-91
2023/03/11 12:36:19;;;;;;;;;;;23.90;44.80;;;;;;5136229;27;20410;-91
2023/03/11 12:38:45;;;;;;;;;;;25.20;42.50;;;;;;5136169;27;19942;-91
2023/03/11 12:41:14;;;;;;;;;;;25.90;39.50;;;;;;5136167;27;19981;-91
2023/03/11 12:43:39;;;;;;;;;;;26.60;37.90;;;;;;5136000;27;19959;-91
2023/03/11 12:46:08;;;;;;;;;;;27.20;36.80;;;;;;5136063;27;19944;-91
2023/03/11 12:48:41;;;;;;;;;;;27.70;36.10;;;;;;5135969;27;20521;-91
2023/03/11 12:51:27;;;;;;;;;;;27.50;36.40;;;;;;5135934;27;20450;-91
2023/03/11 12:53:53;;;;;;;;;;;27.30;36.80;;;;;;5135700;27;19956;-91
2023/03/11 12:56:19;;;;;;;;;;;27.60;35.70;;;;;;5135802;27;19936;-91
2023/03/11 12:58:50;;;;;;;;;;;28.00;34.40;;;;;;5135778;27;19940;-91
2023/03/11 13:01:20;;;;;;;;;;;28.40;33.50;;;;;;5135376;27;19944;-91
2023/03/11 13:04:04;;;;;;;;;;;28.00;34.00;;;;;;5135490;27;20026;-91
2023/03/11 13:06:36;;;;;;;;;;;28.00;34.20;;;;;;5135907;27;19986;-91
2023/03/11 13:09:01;;;;;;;;;;;28.50;33.40;;;;;;5135549;27;19981;-91
2023/03/11 13:11:33;;;;;;;;;;;28.40;34.40;;;;;;5135501;27;19943;-91
2023/03/11 13:14:13;;;;;;;;;;;28.70;33.20;;;;;;5135471;27;19938;-91
2023/03/11 13:16:39;;;;;;;;;;;28.90;33.00;;;;;;5116970;27;19975;-91
2023/03/11 13:19:24;;;;;;;;;;;28.90;32.90;;;;;;5135381;27;19960;-91
2023/03/11 13:21:49;;;;;;;;;;;29.60;32.60;;;;;;5135220;27;20057;-91
2023/03/11 13:24:18;;;;;;;;;;;29.70;33.00;;;;;;5135296;27;19983;-91
2023/03/11 13:26:49;;;;;;;;;;;30.20;31.50;;;;;;5135207;27;20397;-91
2023/03/11 13:29:27;;;;;;;;;;;30.00;31.10;;;;;;5134666;27;19987;-91
2023/03/11 13:32:15;;;;;;;;;;;30.60;31.50;;;;;;5135137;27;19944;-91
2023/03/11 13:34:44;;;;;;;;;;;30.10;31.30;;;;;;5116600;27;19907;-91
2023/03/11 13:37:19;;;;;;;;;;;29.10;33.10;;;;;;5135013;27;19991;-91
2023/03/11 13:39:48;;;;;;;;;;;29.60;32.30;;;;;;5135045;27;19945;-91
2023/03/11 13:42:35;;;;;;;;;;;29.80;33.00;;;;;;5116485;27;19965;-91
2023/03/11 13:45:03;;;;;;;;;;;29.70;32.10;;;;;;5134911;27;19941;-91
2023/03/11 13:47:30;;;;;;;;;;;29.90;31.30;;;;;;5134875;27;19949;-90
2023/03/11 13:50:04;;;;;;;;;;;28.00;34.40;;;;;;5134823;27;19992;-91
2023/03/11 13:52:31;;;;;;;;;;;27.70;35.60;;;;;;5134695;27;19964;-91
2023/03/11 13:54:59;;;;;;;;;;;27.60;36.80;;;;;;5134732;27;19990;-91
2023/03/11 13:57:30;;;;;;;;;;;27.30;36.10;;;;;;5134388;27;19954;-90
2023/03/11 13:59:56;;;;;;;;;;;27.30;36.50;;;;;;5134582;27;19942;-91
2023/03/11 14:02:23;;;;;;;;;;;27.10;36.60;;;;;;5134398;27;19957;-91
2023/03/11 14:04:50;;;;;;;;;;;27.00;36.80;;;;;;5134375;27;19979;-91
2023/03/11 14:07:21;;;;;;;;;;;26.70;37.20;;;;;;5134537;27;19943;-91
2023/03/11 14:09:46;;;;;;;;;;;26.50;36.40;;;;;;5134484;27;20412;-91
2023/03/11 14:12:12;;;;;;;;;;;26.30;37.00;;;;;;5134474;27;19979;-91
2023/03/11 14:14:44;;;;;;;;;;;26.10;38.20;;;;;;5134373;27;19954;-92
2023/03/11 14:17:14;;;;;;;;;;;26.30;37.40;;;;;;5134619;27;19973;-91
2023/03/11 14:19:40;;;;;;;;;;;26.80;36.60;;;;;;5134089;27;19949;-92
2023/03/11 14:22:09;;;;;;;;;;;26.80;36.50;;;;;;5123313;27;19963;-91
2023/03/11 14:24:35;;;;;;;;;;;25.60;40.10;;;;;;5113727;28;19935;-91
2023/03/11 14:27:02;;;;;;;;;;;25.50;40.00;;;;;;5113683;28;19962;-91